Terminal Aerodrome Forecast
Issued by NWS El Paso, TX

Home | Current Version | Previous Version | Text Only | Print | Product List | Glossary On
Versions: 1 2 3 4 5 6 7 8 9 10 11 12 13 14
000
FTUS44 KEPZ 230520
TAFELP
TAF
KELP 230520Z 2306/2406 17011KT P6SM SCT090 SCT250
     FM230800 19010KT P6SM VCTS SCT070CB BKN140
     FM231400 15008KT P6SM VCTS SCT060CB BKN100
     FM232100 19010KT P6SM VCTS SCT060CB BKN100
     FM240200 22010KT P6SM SCT060 BKN120=

USA.gov is the U.S. government's official web portal to all federal, state and local government web resources and services.